createdAt,value
2023-03-06T00:00:53.104Z,94.11
2023-03-06T00:04:19.212Z,94.28
2023-03-06T00:07:45.338Z,94.55
2023-03-06T00:11:14.816Z,94.56
2023-03-06T00:14:40.565Z,94.67
2023-03-06T00:18:07.075Z,94.59
2023-03-06T00:21:32.948Z,94.55
2023-03-06T00:25:00.916Z,94.73
2023-03-06T00:28:30.988Z,95.07
2023-03-06T00:31:56.610Z,95.15
2023-03-06T00:35:22.250Z,95.50
2023-03-06T00:38:50.074Z,95.29
2023-03-06T00:42:16.327Z,95.12
2023-03-06T00:45:42.070Z,95.23
2023-03-06T00:49:07.797Z,95.44
2023-03-06T00:52:33.814Z,95.43
2023-03-06T00:56:01.769Z,95.47
2023-03-06T00:59:28.724Z,95.57
2023-03-06T01:02:56.659Z,96.22
2023-03-06T01:06:22.650Z,96.45
2023-03-06T01:09:48.202Z,96.83
2023-03-06T01:13:15.691Z,96.84
2023-03-06T01:16:41.521Z,96.97
2023-03-06T01:20:08.203Z,96.83
2023-03-06T01:23:36.089Z,96.44
2023-03-06T01:27:02.900Z,96.46
2023-03-06T01:30:30.775Z,96.32
2023-03-06T01:33:56.503Z,96.33
2023-03-06T01:37:22.249Z,96.34
2023-03-06T01:40:48.080Z,96.35
2023-03-06T01:44:14.559Z,96.44
2023-03-06T01:47:41.040Z,96.40
2023-03-06T01:51:07.838Z,96.54
2023-03-06T01:54:39.972Z,96.78
2023-03-06T01:58:08.283Z,96.87
2023-03-06T02:01:34.466Z,96.95
2023-03-06T02:05:02.227Z,97.19
2023-03-06T02:08:28.327Z,97.48
2023-03-06T02:11:54.081Z,97.67
2023-03-06T02:15:21.835Z,97.93
2023-03-06T02:18:47.989Z,98.06
2023-03-06T02:22:15.947Z,98.32
2023-03-06T02:25:44.829Z,98.37
2023-03-06T02:29:11.032Z,98.42
2023-03-06T02:32:37.202Z,98.48
2023-03-06T02:36:04.882Z,98.19
2023-03-06T02:39:33.447Z,98.25
2023-03-06T02:42:59.824Z,98.50
2023-03-06T02:46:27.032Z,98.41
2023-03-06T02:49:53.271Z,98.32
2023-03-06T02:53:20.206Z,98.42
2023-03-06T02:56:47.320Z,98.42
2023-03-06T03:00:14.557Z,98.56
2023-03-06T03:03:40.724Z,98.71
2023-03-06T03:07:06.955Z,98.85
2023-03-06T03:10:33.884Z,98.83
2023-03-06T03:14:02.882Z,98.67
2023-03-06T03:17:35.699Z,98.91
2023-03-06T03:21:02.965Z,99.00
2023-03-06T03:24:30.345Z,99.02
2023-03-06T03:27:56.983Z,98.77
2023-03-06T03:31:24.779Z,99.02
2023-03-06T03:34:50.660Z,98.95
2023-03-06T03:38:16.563Z,98.99
2023-03-06T03:41:42.701Z,99.02
2023-03-06T03:45:10.204Z,99.04
2023-03-06T03:48:27.303Z,99.33
2023-03-06T03:51:55.709Z,99.53
2023-03-06T03:55:23.153Z,99.88
2023-03-06T03:58:52.215Z,99.89
2023-03-06T04:02:27.931Z,99.82
2023-03-06T04:06:04.594Z,99.69
2023-03-06T04:09:31.818Z,99.70
2023-03-06T04:12:58.523Z,99.60
2023-03-06T04:16:25.218Z,99.73
2023-03-06T04:19:51.671Z,99.63
2023-03-06T04:23:18.046Z,99.62
2023-03-06T04:26:52.161Z,99.76
2023-03-06T04:30:29.727Z,99.82
2023-03-06T04:33:58.118Z,99.99
2023-03-06T04:37:29.670Z,100.00
2023-03-06T04:40:59.058Z,100.00
2023-03-06T04:44:25.213Z,100.00
2023-03-06T04:47:53.854Z,100.00
2023-03-06T04:51:41.598Z,100.00
2023-03-06T04:55:14.135Z,100.00
2023-03-06T04:58:40.453Z,100.00
2023-03-06T05:02:26.561Z,100.00
2023-03-06T05:05:55.805Z,100.00
2023-03-06T05:09:23.768Z,100.00
2023-03-06T05:12:53.991Z,100.00
2023-03-06T05:16:45.070Z,100.00
2023-03-06T05:20:12.811Z,100.00
2023-03-06T05:23:40.133Z,100.00
2023-03-06T05:27:27.363Z,100.00
2023-03-06T05:31:22.631Z,100.00
2023-03-06T05:34:49.347Z,100.00
2023-03-06T05:38:37.077Z,100.00
2023-03-06T05:42:04.465Z,100.00
2023-03-06T05:45:34.177Z,100.00
2023-03-06T05:48:59.995Z,100.00
2023-03-06T05:52:28.847Z,100.00
2023-03-06T05:56:00.074Z,100.00
2023-03-06T05:59:46.509Z,100.00
2023-03-06T06:03:18.451Z,100.00
2023-03-06T06:07:24.673Z,100.00
2023-03-06T06:10:53.519Z,100.00
2023-03-06T06:14:20.284Z,100.00
2023-03-06T06:18:08.461Z,99.77
2023-03-06T06:21:35.991Z,99.32
2023-03-06T06:25:23.705Z,99.22
2023-03-06T06:28:51.395Z,98.83
2023-03-06T06:32:17.656Z,98.67
2023-03-06T06:35:44.082Z,98.70
2023-03-06T06:39:12.855Z,98.57
2023-03-06T06:42:40.381Z,98.56
2023-03-06T06:46:38.831Z,98.52
2023-03-06T06:49:53.536Z,98.28
2023-03-06T06:53:19.395Z,98.28
2023-03-06T06:56:45.362Z,97.83
2023-03-06T07:00:14.465Z,97.57
2023-03-06T07:03:40.725Z,97.37
2023-03-06T07:07:06.465Z,97.35
2023-03-06T07:10:32.460Z,97.14
2023-03-06T07:13:58.425Z,97.02
2023-03-06T07:17:24.341Z,96.73
2023-03-06T07:20:50.203Z,96.29
2023-03-06T07:24:16.659Z,95.94
2023-03-06T07:27:44.324Z,95.68
2023-03-06T07:31:08.704Z,94.88
2023-03-06T07:35:27.205Z,94.59
2023-03-06T07:39:02.677Z,94.40
2023-03-06T07:42:29.468Z,94.74
2023-03-06T07:45:58.968Z,93.80
2023-03-06T07:49:24.990Z,93.25
2023-03-06T07:52:52.844Z,93.30
2023-03-06T07:56:18.640Z,93.31
2023-03-06T07:59:44.397Z,93.40
2023-03-06T08:03:11.421Z,93.64
2023-03-06T08:06:37.165Z,93.45
2023-03-06T08:10:05.191Z,93.30
2023-03-06T08:13:31.017Z,92.64
2023-03-06T08:16:57.423Z,92.27
2023-03-06T08:20:23.458Z,91.59
2023-03-06T08:23:49.162Z,91.00
2023-03-06T08:27:15.064Z,91.05
2023-03-06T08:30:41.056Z,90.95
2023-03-06T08:34:07.619Z,90.36
2023-03-06T08:37:33.487Z,89.68
2023-03-06T08:40:59.441Z,89.68
2023-03-06T08:45:12.724Z,89.19
2023-03-06T08:48:12.077Z,89.25
2023-03-06T08:51:37.886Z,88.40
2023-03-06T08:55:04.143Z,87.49
2023-03-06T08:58:30.607Z,87.26
2023-03-06T09:01:56.276Z,86.96
2023-03-06T09:05:22.374Z,86.68
2023-03-06T09:08:56.572Z,86.79
2023-03-06T09:12:24.671Z,86.18
2023-03-06T09:15:50.579Z,85.27
2023-03-06T09:19:16.261Z,84.79
2023-03-06T09:22:46.152Z,84.69
2023-03-06T09:26:12.224Z,84.43
2023-03-06T09:29:37.771Z,84.40
2023-03-06T09:33:03.394Z,84.49
2023-03-06T09:36:29.389Z,84.36
2023-03-06T09:39:55.280Z,82.39
2023-03-06T09:43:26.666Z,82.31
2023-03-06T09:47:14.864Z,82.79
2023-03-06T09:50:45.621Z,82.02
2023-03-06T09:54:13.328Z,81.44
2023-03-06T09:57:42.374Z,80.29
2023-03-06T10:01:13.133Z,79.71
2023-03-06T10:04:41.501Z,77.73
2023-03-06T10:08:13.341Z,76.86
2023-03-06T10:11:40.492Z,76.31
2023-03-06T10:15:13.169Z,76.04
2023-03-06T10:18:39.227Z,75.26
2023-03-06T10:22:07.826Z,74.65
2023-03-06T10:25:37.973Z,74.63
2023-03-06T10:29:17.432Z,74.07
2023-03-06T10:32:49.477Z,74.04
2023-03-06T10:36:16.266Z,73.48
2023-03-06T10:39:41.952Z,72.75
2023-03-06T10:43:12.388Z,72.31
2023-03-06T10:46:39.384Z,71.71
2023-03-06T10:50:08.419Z,72.37
2023-03-06T10:53:34.128Z,72.43
2023-03-06T10:57:09.430Z,72.28
2023-03-06T11:00:36.265Z,71.54
2023-03-06T11:04:15.106Z,71.05
2023-03-06T11:07:54.753Z,70.69
2023-03-06T11:11:36.801Z,69.92
2023-03-06T11:15:21.059Z,68.10
2023-03-06T11:18:56.485Z,66.29
2023-03-06T11:22:22.216Z,67.24
2023-03-06T11:25:50.467Z,67.08
2023-03-06T11:29:29.376Z,66.86
2023-03-06T11:32:58.563Z,66.65
2023-03-06T11:36:27.385Z,66.73
2023-03-06T11:39:58.084Z,67.03
2023-03-06T11:43:26.439Z,67.27
2023-03-06T11:46:54.770Z,68.42
2023-03-06T11:50:23.639Z,69.95
2023-03-06T11:53:49.449Z,70.87
2023-03-06T11:57:16.671Z,71.48
2023-03-06T12:00:49.662Z,72.04
2023-03-06T12:04:32.200Z,72.95
2023-03-06T12:08:03.331Z,73.60
2023-03-06T12:11:33.377Z,74.42
2023-03-06T12:15:08.374Z,74.85
2023-03-06T12:18:46.057Z,75.22
2023-03-06T12:22:21.439Z,74.29
2023-03-06T12:25:49.679Z,74.80
2023-03-06T12:29:23.926Z,74.13
2023-03-06T12:32:53.629Z,73.95
2023-03-06T12:36:30.872Z,74.93
2023-03-06T12:40:23.904Z,75.61
2023-03-06T12:43:55.252Z,76.20
2023-03-06T12:47:17.068Z,76.01
2023-03-06T12:50:28.028Z,75.40
2023-03-06T12:53:37.242Z,74.53
2023-03-06T12:56:55.143Z,75.39
2023-03-06T13:00:40.522Z,75.47
2023-03-06T13:04:01.527Z,74.92
2023-03-06T13:07:28.982Z,75.67
2023-03-06T13:10:40.040Z,75.88
2023-03-06T13:14:19.475Z,76.24
2023-03-06T13:17:45.230Z,76.33
2023-03-06T13:21:25.491Z,75.99
2023-03-06T13:24:43.354Z,76.39
2023-03-06T13:28:03.328Z,76.96
2023-03-06T13:31:24.963Z,77.24
2023-03-06T13:34:47.873Z,78.18
2023-03-06T13:38:30.492Z,78.77
2023-03-06T13:41:58.215Z,78.77
2023-03-06T13:45:26.872Z,77.96
2023-03-06T13:48:45.970Z,77.03
2023-03-06T13:52:09.532Z,76.09
2023-03-06T13:55:27.625Z,76.06
2023-03-06T13:59:04.053Z,76.07
2023-03-06T14:02:42.124Z,76.80
2023-03-06T14:05:55.367Z,78.09
2023-03-06T14:09:04.956Z,78.62
2023-03-06T14:12:25.007Z,78.77
2023-03-06T14:15:52.205Z,79.25
2023-03-06T14:19:18.906Z,78.94
2023-03-06T14:22:37.138Z,78.57
2023-03-06T14:25:46.291Z,78.54
2023-03-06T14:29:20.307Z,78.40
2023-03-06T14:32:49.956Z,78.43
2023-03-06T14:36:17.527Z,78.51
2023-03-06T14:39:45.280Z,78.58
2023-03-06T14:43:14.030Z,79.02
2023-03-06T14:46:39.869Z,79.45
2023-03-06T14:50:23.320Z,78.78
2023-03-06T14:53:42.459Z,78.26
2023-03-06T14:57:02.668Z,78.39
2023-03-06T15:00:34.636Z,78.41
2023-03-06T15:04:01.372Z,78.35
2023-03-06T15:07:23.488Z,78.55
2023-03-06T15:10:30.612Z,78.57
2023-03-06T15:14:03.114Z,78.44
2023-03-06T15:17:29.706Z,77.84
2023-03-06T15:20:53.653Z,78.03
2023-03-06T15:24:29.774Z,78.35
2023-03-06T15:27:50.524Z,77.63
2023-03-06T15:31:22.010Z,77.97
2023-03-06T15:34:49.767Z,78.13
2023-03-06T15:38:34.825Z,78.08
2023-03-06T15:41:59.682Z,78.84
2023-03-06T15:45:36.173Z,79.55
2023-03-06T15:48:51.864Z,79.50
2023-03-06T15:52:21.463Z,79.26
2023-03-06T15:55:37.857Z,79.34
2023-03-06T15:58:53.555Z,79.86
2023-03-06T16:02:14.887Z,80.09
2023-03-06T16:05:31.103Z,80.24
2023-03-06T16:08:55.653Z,80.58
2023-03-06T16:12:01.274Z,80.98
2023-03-06T16:15:20.621Z,81.53
2023-03-06T16:18:37.805Z,82.07
2023-03-06T16:21:44.207Z,81.77
2023-03-06T16:24:52.590Z,81.84
2023-03-06T16:28:11.209Z,82.02
2023-03-06T16:31:28.288Z,82.26
2023-03-06T16:34:34.008Z,82.79
2023-03-06T16:37:42.604Z,83.05
2023-03-06T16:40:59.348Z,83.33
2023-03-06T16:44:11.796Z,83.78
2023-03-06T16:47:27.898Z,83.89
2023-03-06T16:50:43.769Z,84.18
2023-03-06T16:53:55.364Z,84.23
2023-03-06T16:57:04.217Z,84.31
2023-03-06T17:00:11.312Z,84.71
2023-03-06T17:03:20.038Z,85.10
2023-03-06T17:06:25.723Z,85.40
2023-03-06T17:09:31.613Z,85.77
2023-03-06T17:12:37.262Z,86.14
2023-03-06T17:15:42.828Z,86.68
2023-03-06T17:18:50.979Z,86.97
2023-03-06T17:21:56.364Z,87.19
2023-03-06T17:25:14.687Z,87.29
2023-03-06T17:28:20.131Z,87.46
2023-03-06T17:31:47.259Z,87.80
2023-03-06T17:34:53.099Z,88.22
2023-03-06T17:38:03.621Z,88.27
2023-03-06T17:41:18.507Z,88.71
2023-03-06T17:44:27.137Z,89.08
2023-03-06T17:47:32.834Z,89.12
2023-03-06T17:50:38.282Z,89.15
2023-03-06T17:53:43.632Z,89.27
2023-03-06T17:56:52.234Z,89.52
2023-03-06T17:59:57.859Z,89.78
2023-03-06T18:03:03.426Z,90.15
2023-03-06T18:06:10.470Z,90.24
2023-03-06T18:09:15.958Z,91.08
2023-03-06T18:12:33.189Z,91.43
2023-03-06T18:15:41.623Z,91.57
2023-03-06T18:18:52.221Z,91.62
2023-03-06T18:22:08.527Z,91.62
2023-03-06T18:25:14.452Z,91.77
2023-03-06T18:28:20.109Z,92.14
2023-03-06T18:31:26.713Z,92.54
2023-03-06T18:34:32.227Z,92.37
2023-03-06T18:37:37.965Z,92.30
2023-03-06T18:40:56.780Z,92.42
2023-03-06T18:44:14.691Z,92.34
2023-03-06T18:47:20.107Z,92.46
2023-03-06T18:50:25.554Z,92.57
2023-03-06T18:53:30.959Z,93.01
2023-03-06T18:56:36.586Z,93.18
2023-03-06T18:59:42.017Z,93.02
2023-03-06T19:02:50.469Z,93.03
2023-03-06T19:11:04.834Z,93.06
2023-03-06T19:14:18.062Z,93.19
2023-03-06T19:17:25.015Z,93.41
2023-03-06T19:20:30.503Z,93.77
2023-03-06T19:23:35.954Z,94.07
2023-03-06T19:26:55.177Z,94.35
2023-03-06T19:30:00.699Z,94.87
2023-03-06T19:33:09.094Z,95.19
2023-03-06T19:36:15.429Z,95.18
2023-03-06T19:39:22.401Z,95.10
2023-03-06T19:42:47.997Z,95.39
2023-03-06T19:46:00.663Z,95.67
2023-03-06T19:49:11.827Z,95.87
2023-03-06T19:52:18.207Z,95.94
2023-03-06T19:55:28.596Z,96.01
2023-03-06T19:58:34.206Z,96.01
2023-03-06T20:01:39.761Z,96.06
2023-03-06T20:04:45.480Z,96.11
2023-03-06T20:07:51.514Z,95.88
2023-03-06T20:10:59.851Z,95.75
2023-03-06T20:14:05.881Z,95.72
2023-03-06T20:17:11.288Z,95.82
2023-03-06T20:20:16.853Z,95.84
2023-03-06T20:23:22.294Z,95.99
2023-03-06T20:26:28.396Z,96.12
2023-03-06T20:29:33.983Z,96.34
2023-03-06T20:32:39.853Z,96.27
2023-03-06T20:35:48.228Z,96.14
2023-03-06T20:38:56.969Z,96.28
2023-03-06T20:42:02.461Z,96.21
2023-03-06T20:45:08.873Z,96.37
2023-03-06T20:48:14.203Z,96.47
2023-03-06T20:51:20.658Z,96.22
2023-03-06T20:54:26.316Z,96.56
2023-03-06T20:57:31.882Z,96.66
2023-03-06T21:00:37.426Z,96.87
2023-03-06T21:03:42.859Z,96.88
2023-03-06T21:06:48.250Z,96.94
2023-03-06T21:09:53.784Z,97.04
2023-03-06T21:12:59.539Z,97.21
2023-03-06T21:16:09.759Z,97.10
2023-03-06T21:19:15.288Z,97.07
2023-03-06T21:22:20.980Z,96.93
2023-03-06T21:25:26.455Z,96.89
2023-03-06T21:28:31.956Z,96.93
2023-03-06T21:31:37.450Z,96.80
2023-03-06T21:34:52.293Z,96.60
2023-03-06T21:37:57.935Z,96.80
2023-03-06T21:41:08.949Z,96.86
2023-03-06T21:44:14.477Z,96.94
2023-03-06T21:47:20.012Z,96.91
2023-03-06T21:50:28.782Z,96.67
2023-03-06T21:53:37.031Z,96.49
2023-03-06T21:56:44.826Z,96.70
2023-03-06T21:59:55.713Z,96.95
2023-03-06T22:03:04.869Z,97.45
2023-03-06T22:06:14.226Z,98.04
2023-03-06T22:09:20.067Z,98.02
2023-03-06T22:12:27.852Z,97.66
2023-03-06T22:15:35.504Z,97.56
2023-03-06T22:18:46.637Z,97.34
2023-03-06T22:21:56.675Z,97.33
2023-03-06T22:25:06.043Z,97.11
2023-03-06T22:28:31.980Z,97.14
2023-03-06T22:31:39.898Z,96.93
2023-03-06T22:34:47.956Z,97.03
2023-03-06T22:38:04.687Z,97.35
2023-03-06T22:41:13.843Z,97.58
2023-03-06T22:44:20.267Z,97.58
2023-03-06T22:47:25.638Z,97.42
2023-03-06T22:50:31.119Z,97.59
2023-03-06T22:53:39.546Z,97.41
2023-03-06T22:56:44.923Z,97.18
2023-03-06T22:59:50.484Z,97.43
2023-03-06T23:02:56.030Z,97.47
2023-03-06T23:06:01.403Z,98.11
2023-03-06T23:09:08.000Z,98.73
2023-03-06T23:12:31.863Z,99.37
2023-03-06T23:15:56.134Z,99.67
2023-03-06T23:19:20.072Z,99.98
2023-03-06T23:22:44.272Z,100.00
2023-03-06T23:26:09.322Z,100.00
2023-03-06T23:29:14.916Z,100.00
2023-03-06T23:32:20.588Z,99.98
2023-03-06T23:35:26.128Z,99.90
2023-03-06T23:38:35.146Z,99.81
2023-03-06T23:41:40.992Z,99.57
2023-03-06T23:44:50.087Z,99.22
2023-03-06T23:47:57.830Z,99.34
2023-03-06T23:51:05.794Z,99.35
2023-03-06T23:54:11.595Z,99.09
2023-03-06T23:57:17.525Z,99.25
